Time;durP1;ratioP1;P1;durP2;ratioP2;P2;SDS_P1;SDS_P2;PMS_P1;PMS_P2;Temp;Humidity;BMP_temperature;BMP_pressure;BME280_temperature;BME280_humidity;BME280_pressure;Samples;Min_cycle;Max_cycle;Signal;HPM_P1;HPM_P2
2020/12/02 00:00:14;;;;;;;32.77;14.90;;;-2.90;99.90;;;;;;4957451;29;20709;-91
2020/12/02 00:02:49;;;;;;;36.17;15.30;;;-2.90;99.90;;;;;;4955456;28;20184;-91
2020/12/02 00:05:16;;;;;;;33.57;15.80;;;-2.90;99.90;;;;;;4955527;29;20187;-89
2020/12/02 00:07:46;;;;;;;32.10;14.53;;;-2.80;99.90;;;;;;4957117;29;20187;-91
2020/12/02 00:10:12;;;;;;;29.63;13.43;;;;;;;;;;4957279;29;20639;-91
2020/12/02 00:12:38;;;;;;;29.83;14.57;;;;;;;;;;4955849;29;20293;-90
2020/12/02 00:15:06;;;;;;;31.33;12.50;;;-2.90;99.90;;;;;;4955476;29;20306;-90
2020/12/02 00:17:32;;;;;;;30.30;13.90;;;;;;;;;;4956758;28;20268;-90
2020/12/02 00:19:59;;;;;;;28.03;13.43;;;;;;;;;;4955714;29;20548;-90
2020/12/02 00:22:25;;;;;;;26.03;13.17;;;-2.80;99.90;;;;;;4955380;29;20254;-90
2020/12/02 00:24:51;;;;;;;28.70;12.67;;;;;;;;;;4956895;29;20188;-92
2020/12/02 00:27:18;;;;;;;32.23;13.60;;;-2.80;99.90;;;;;;4955454;29;20214;-91
2020/12/02 00:29:44;;;;;;;26.80;14.07;;;;;;;;;;4955822;28;20187;-92
2020/12/02 00:32:34;;;;;;;35.50;16.10;;;-2.80;99.90;;;;;;4955641;29;20193;-91
2020/12/02 00:35:00;;;;;;;30.63;14.40;;;-2.80;99.90;;;;;;4955580;29;20306;-91
2020/12/02 00:37:27;;;;;;;26.30;12.43;;;-2.70;99.90;;;;;;4955425;29;20216;-92
2020/12/02 00:39:54;;;;;;;35.00;14.57;;;-2.70;99.90;;;;;;4956726;29;20271;-91
2020/12/02 00:42:21;;;;;;;31.43;15.43;;;-2.70;99.90;;;;;;4955089;29;20310;-92
2020/12/02 00:44:47;;;;;;;35.00;16.63;;;;;;;;;;4956402;29;20266;-91
2020/12/02 00:47:17;;;;;;;25.37;13.13;;;-2.70;99.90;;;;;;4956353;29;20648;-91
2020/12/02 00:49:44;;;;;;;27.10;13.87;;;;;;;;;;4955520;29;20194;-90
2020/12/02 00:52:10;;;;;;;28.47;15.40;;;-2.70;99.90;;;;;;4954880;29;20198;-91
2020/12/02 00:54:37;;;;;;;25.47;13.13;;;;;;;;;;4954408;29;20219;-91
2020/12/02 00:57:03;;;;;;;31.80;13.87;;;;;;;;;;4938926;29;20650;-90
2020/12/02 00:59:31;;;;;;;32.67;14.47;;;-2.70;99.90;;;;;;4955787;29;20265;-91
2020/12/02 01:02:16;;;;;;;25.73;13.30;;;-2.60;99.90;;;;;;4954810;29;20188;-90
2020/12/02 01:04:44;;;;;;;31.67;13.43;;;-2.60;99.90;;;;;;4954477;29;20296;-91
2020/12/02 01:07:13;;;;;;;33.33;14.13;;;-2.60;99.90;;;;;;4954525;29;20687;-92
2020/12/02 01:09:40;;;;;;;27.83;13.57;;;;;;;;;;4955730;29;20183;-92
2020/12/02 01:12:06;;;;;;;29.27;12.57;;;;;;;;;;4955671;29;20179;-91
2020/12/02 01:14:32;;;;;;;27.23;12.53;;;;;;;;;;4953674;28;20211;-92
2020/12/02 01:17:00;;;;;;;21.43;11.47;;;-2.60;99.90;;;;;;4954817;29;20195;-92
2020/12/02 01:19:29;;;;;;;24.23;12.40;;;-2.60;99.90;;;;;;4954212;29;20203;-93
2020/12/02 01:21:58;;;;;;;24.90;11.50;;;-2.60;99.90;;;;;;4954615;29;20661;-92
2020/12/02 01:24:34;;;;;;;23.10;13.03;;;-2.60;99.90;;;;;;4954301;28;20601;-92
2020/12/02 01:27:31;;;;;;;29.00;12.77;;;-2.60;99.90;;;;;;4954497;29;20178;-92
2020/12/02 01:29:57;;;;;;;22.47;12.27;;;-2.60;99.90;;;;;;4954709;29;20680;-93
2020/12/02 01:32:23;;;;;;;28.73;13.37;;;;;;;;;;4954171;29;20178;-92
2020/12/02 01:34:51;;;;;;;22.93;12.67;;;-2.60;99.90;;;;;;4954418;29;20211;-92
2020/12/02 01:37:17;;;;;;;24.87;12.60;;;;;;;;;;4954472;29;20189;-92
2020/12/02 01:39:51;;;;;;;21.53;11.57;;;-2.60;99.90;;;;;;4953924;29;20256;-92
2020/12/02 01:42:17;;;;;;;32.00;13.73;;;;;;;;;;4955571;29;20186;-92
2020/12/02 01:44:43;;;;;;;25.37;12.73;;;;;;;;;;4953839;29;20191;-93
2020/12/02 01:47:15;;;;;;;27.70;13.07;;;-2.60;99.90;;;;;;4954096;29;20191;-92
2020/12/02 01:49:54;;;;;;;24.77;12.43;;;-2.50;99.90;;;;;;4953900;29;20284;-93
2020/12/02 01:52:56;;;;;;;29.53;14.43;;;-2.50;99.90;;;;;;4954778;29;20250;-88
2020/12/02 01:55:29;;;;;;;25.27;13.13;;;-2.50;99.90;;;;;;4954768;29;20257;-92
2020/12/02 01:58:00;;;;;;;28.07;12.87;;;-2.50;99.90;;;;;;4953790;29;20194;-92
2020/12/02 02:00:30;;;;;;;25.30;13.07;;;-2.60;99.90;;;;;;4955139;29;20171;-92
2020/12/02 02:03:26;;;;;;;29.40;14.33;;;-2.50;99.90;;;;;;4953955;29;20194;-92
2020/12/02 02:05:57;;;;;;;30.13;15.07;;;-2.50;99.90;;;;;;4953840;29;20659;-93
2020/12/02 02:08:27;;;;;;;27.13;12.37;;;-2.50;99.90;;;;;;4954696;29;20176;-92
2020/12/02 02:10:56;;;;;;;30.97;14.47;;;-2.60;99.90;;;;;;4953201;29;20183;-91
2020/12/02 02:13:50;;;;;;;23.63;12.53;;;-4.70;99.90;;;;;;4953223;29;20179;-89
2020/12/02 02:16:20;;;;;;;26.63;12.60;;;-2.60;99.90;;;;;;4953407;29;20219;-91
2020/12/02 02:18:46;;;;;;;26.90;12.20;;;;;;;;;;4953121;29;20187;-90
2020/12/02 02:21:23;;;;;;;27.77;13.53;;;-2.40;99.90;;;;;;4953521;29;20189;-93
2020/12/02 02:23:49;;;;;;;28.23;12.93;;;;;;;;;;4953623;29;20266;-91
2020/12/02 02:26:15;;;;;;;27.00;14.70;;;;;;;;;;4953307;29;20221;-91
2020/12/02 02:28:55;;;;;;;24.93;11.87;;;-2.60;99.90;;;;;;4954591;29;20210;-90
2020/12/02 02:31:24;;;;;;;25.10;13.53;;;-2.60;99.90;;;;;;4953751;29;20183;-91
2020/12/02 02:33:51;;;;;;;28.13;14.73;;;-2.60;99.90;;;;;;4953668;29;20185;-92
2020/12/02 02:36:21;;;;;;;30.27;14.27;;;-2.60;99.90;;;;;;4954758;29;20296;-90
2020/12/02 02:38:47;;;;;;;30.70;15.10;;;;;;;;;;4953847;29;20385;-90
2020/12/02 02:41:13;;;;;;;29.50;14.57;;;;;;;;;;4954848;29;20184;-92
2020/12/02 02:43:40;;;;;;;34.60;15.27;;;;;;;;;;4937051;29;20187;-92
2020/12/02 02:46:07;;;;;;;30.77;14.73;;;-2.60;99.90;;;;;;4938866;29;20699;-93
2020/12/02 02:48:34;;;;;;;32.93;14.23;;;-2.50;99.90;;;;;;4954540;29;20235;-92
2020/12/02 02:51:00;;;;;;;31.23;15.23;;;;;;;;;;4954683;29;20179;-92
2020/12/02 02:53:28;;;;;;;33.97;16.73;;;-2.50;99.90;;;;;;4963878;29;20189;-87
2020/12/02 02:55:54;;;;;;;32.47;15.17;;;;;;;;;;4975122;29;20266;-89
2020/12/02 02:58:25;;;;;;;32.90;15.53;;;;;;;;;;4975156;29;20254;-88
2020/12/02 03:00:51;;;;;;;26.23;13.27;;;;;;;;;;4974385;28;20165;-88
2020/12/02 03:03:18;;;;;;;31.50;14.80;;;-2.50;99.90;;;;;;4957561;29;20194;-88
2020/12/02 03:05:44;;;;;;;30.30;14.90;;;;;;;;;;4964654;29;20315;-92
2020/12/02 03:08:11;;;;;;;30.17;15.13;;;-2.50;99.90;;;;;;4955170;29;20218;-92
2020/12/02 03:10:40;;;;;;;29.10;13.73;;;-2.50;99.90;;;;;;4955422;29;20184;-90
2020/12/02 03:13:20;;;;;;;30.10;14.57;;;-2.50;99.90;;;;;;4970514;28;20267;-88
2020/12/02 03:15:46;;;;;;;36.33;15.60;;;;;;;;;;4975332;29;20226;-86
2020/12/02 03:18:13;;;;;;;31.57;16.33;;;-2.40;99.90;;;;;;4973629;29;20227;-87
2020/12/02 03:20:44;;;;;;;32.23;15.03;;;-2.40;99.90;;;;;;4973106;29;20171;-86
2020/12/02 03:23:12;;;;;;;25.87;13.17;;;-2.40;99.90;;;;;;4960427;29;20168;-89
2020/12/02 03:25:39;;;;;;;30.30;14.40;;;-2.40;99.90;;;;;;4955669;29;20194;-90
2020/12/02 03:28:05;;;;;;;27.47;13.50;;;;;;;;;;4953373;29;20554;-91
2020/12/02 03:30:31;;;;;;;29.70;14.10;;;;;;;;;;4952715;29;20298;-91
2020/12/02 03:32:57;;;;;;;31.57;15.53;;;;;;;;;;4952746;29;20188;-91
2020/12/02 03:35:23;;;;;;;25.73;13.20;;;;;;;;;;4954060;29;20303;-92
2020/12/02 03:37:49;;;;;;;24.70;13.03;;;;;;;;;;4952741;28;20199;-92
2020/12/02 03:40:16;;;;;;;30.33;14.10;;;;;;;;;;4940619;29;20202;-94
2020/12/02 03:42:42;;;;;;;23.60;12.40;;;;;;;;;;4956529;29;20551;-93
2020/12/02 03:45:09;;;;;;;25.33;13.33;;;-2.40;99.90;;;;;;4956732;29;20593;-94
2020/12/02 03:47:36;;;;;;;29.83;13.17;;;-2.50;99.90;;;;;;4957272;29;20191;-95
2020/12/02 03:50:05;;;;;;;26.63;13.33;;;-2.50;99.90;;;;;;4956785;29;20182;-92
2020/12/02 03:52:31;;;;;;;28.00;15.07;;;;;;;;;;4956184;29;20212;-92
2020/12/02 03:54:57;;;;;;;27.27;12.13;;;;;;;;;;4940384;29;20329;-92
2020/12/02 03:57:23;;;;;;;18.93;10.23;;;;;;;;;;4956513;29;20650;-93
2020/12/02 03:59:49;;;;;;;29.17;13.80;;;;;;;;;;4940632;29;20250;-92
2020/12/02 04:02:15;;;;;;;31.57;14.33;;;;;;;;;;4956756;29;20189;-94
2020/12/02 04:04:41;;;;;;;23.97;12.70;;;;;;;;;;4956023;29;20184;-95
2020/12/02 04:07:07;;;;;;;26.00;13.30;;;;;;;;;;4956690;29;20195;-91
2020/12/02 04:09:33;;;;;;;30.13;14.87;;;;;;;;;;4955976;29;20190;-89
2020/12/02 04:11:59;;;;;;;28.57;14.50;;;;;;;;;;4956909;29;20550;-93
2020/12/02 04:14:25;;;;;;;29.60;15.47;;;;;;;;;;4956049;29;20183;-92
2020/12/02 04:16:51;;;;;;;24.80;12.47;;;;;;;;;;4940581;29;20287;-93
2020/12/02 04:19:17;;;;;;;30.73;14.37;;;;;;;;;;4957072;29;20282;-94
2020/12/02 04:21:43;;;;;;;29.20;13.60;;;;;;;;;;4956135;29;20195;-93
2020/12/02 04:24:09;;;;;;;24.70;11.67;;;;;;;;;;4957182;29;20180;-92
2020/12/02 04:26:35;;;;;;;25.03;12.37;;;;;;;;;;4956594;29;20184;-90
2020/12/02 04:29:01;;;;;;;22.27;12.70;;;;;;;;;;4957065;29;20266;-92
2020/12/02 04:31:28;;;;;;;22.40;11.23;;;;;;;;;;4939932;29;20751;-92
2020/12/02 04:33:54;;;;;;;25.77;11.30;;;;;;;;;;4955696;29;20215;-92
2020/12/02 04:36:20;;;;;;;22.43;10.57;;;;;;;;;;4956215;29;20252;-93
2020/12/02 04:38:46;;;;;;;23.57;12.13;;;;;;;;;;4939565;29;20198;-93
2020/12/02 04:41:15;;;;;;;25.27;13.23;;;-2.30;99.90;;;;;;4956872;29;20192;-92
2020/12/02 04:43:43;;;;;;;28.27;13.13;;;-2.40;99.90;;;;;;4955544;29;20640;-92
2020/12/02 04:46:24;;;;;;;27.70;12.27;;;-2.40;99.90;;;;;;4956092;29;20274;-92
2020/12/02 04:48:59;;;;;;;20.57;10.90;;;-2.40;99.90;;;;;;4954882;28;20180;-93
2020/12/02 04:51:27;;;;;;;27.07;12.40;;;-2.40;99.90;;;;;;4955979;29;20311;-92
2020/12/02 04:53:56;;;;;;;24.83;10.70;;;-2.40;99.90;;;;;;4955244;29;20184;-94
2020/12/02 04:56:25;;;;;;;22.30;12.00;;;;;;;;;;4954277;29;20307;-94
2020/12/02 04:58:51;;;;;;;22.50;11.77;;;;;;;;;;4953817;28;20235;-93
2020/12/02 05:01:24;;;;;;;20.53;11.03;;;-2.40;99.90;;;;;;4953818;29;20715;-93
2020/12/02 05:04:06;;;;;;;21.80;9.93;;;-2.30;99.90;;;;;;4954186;29;20201;-92
2020/12/02 05:06:44;;;;;;;20.63;11.80;;;-2.40;99.90;;;;;;4953988;28;20206;-88
2020/12/02 05:09:22;;;;;;;21.43;10.93;;;-2.40;99.90;;;;;;4954349;29;20183;-93
2020/12/02 05:12:04;;;;;;;26.27;12.17;;;-2.60;99.90;;;;;;4956138;29;20654;-93
2020/12/02 05:14:50;;;;;;;22.70;11.60;;;-2.40;99.90;;;;;;4956560;29;20208;-95
2020/12/02 05:17:21;;;;;;;19.53;10.03;;;-2.40;99.90;;;;;;4939399;29;20228;-94
2020/12/02 05:20:06;;;;;;;18.30;9.97;;;-2.40;99.90;;;;;;4955087;29;20215;-94
2020/12/02 05:22:37;;;;;;;22.70;10.77;;;-2.40;99.90;;;;;;4955116;29;20289;-95
2020/12/02 05:25:06;;;;;;;21.20;10.93;;;-2.40;99.90;;;;;;4956696;29;20536;-96
2020/12/02 05:27:36;;;;;;;20.70;11.40;;;-2.40;99.90;;;;;;4954953;29;20613;-93
2020/12/02 05:30:24;;;;;;;22.57;10.60;;;-2.40;99.90;;;;;;4962682;28;20274;-93
2020/12/02 05:33:08;;;;;;;24.13;12.40;;;-2.30;99.90;;;;;;4955427;28;20201;-92
2020/12/02 05:35:34;;;;;;;20.13;10.97;;;;;;;;;;4988769;28;20206;-85
2020/12/02 05:38:01;;;;;;;25.20;11.93;;;;;;;;;;4971840;28;20206;-90
2020/12/02 05:40:28;;;;;;;26.93;12.80;;;-1.00;99.90;;;;;;4956756;28;20686;-89
2020/12/02 05:42:58;;;;;;;24.77;12.10;;;-0.80;99.90;;;;;;4957459;28;20191;-89
2020/12/02 05:45:30;;;;;;;21.70;11.17;;;0.00;99.90;;;;;;4961491;28;20590;-93
2020/12/02 05:47:56;;;;;;;23.10;11.93;;;;;;;;;;4955320;29;20179;-91
2020/12/02 05:50:24;;;;;;;28.97;12.97;;;-1.30;99.90;;;;;;4962075;28;20261;-92
2020/12/02 05:52:59;;;;;;;24.73;12.97;;;-1.60;99.90;;;;;;4973149;28;20190;-91
2020/12/02 05:55:30;;;;;;;24.47;12.40;;;-1.80;99.90;;;;;;4974221;28;20651;-93
2020/12/02 05:58:01;;;;;;;27.90;14.13;;;-1.90;99.90;;;;;;4973644;28;20237;-93
2020/12/02 06:00:29;;;;;;;24.03;12.40;;;-2.10;99.90;;;;;;4968321;28;20227;-94
2020/12/02 06:02:57;;;;;;;23.50;9.63;;;-2.10;99.90;;;;;;4965875;28;20176;-92
2020/12/02 06:05:24;;;;;;;25.10;11.57;;;;;;;;;;4957388;28;20274;-94
2020/12/02 06:07:59;;;;;;;24.53;11.57;;;-2.20;99.90;;;;;;4971400;28;20207;-92
2020/12/02 06:10:42;;;;;;;27.30;13.83;;;-2.30;99.90;;;;;;4966938;28;20627;-94
2020/12/02 06:13:14;;;;;;;24.13;12.73;;;-2.30;99.90;;;;;;4955092;28;20176;-88
2020/12/02 06:15:40;;;;;;;29.33;14.27;;;;;;;;;;4954923;29;20218;-87
2020/12/02 06:18:22;;;;;;;30.60;14.87;;;-2.30;99.90;;;;;;4954953;29;20182;-89
2020/12/02 06:20:48;;;;;;;27.53;13.33;;;-2.40;99.90;;;;;;4954747;29;20173;-92
2020/12/02 06:23:15;;;;;;;24.53;13.73;;;;;;;;;;4938154;29;20220;-89
2020/12/02 06:25:46;;;;;;;19.67;11.13;;;-2.40;99.90;;;;;;4955440;29;20198;-93
2020/12/02 06:28:12;;;;;;;20.97;10.20;;;;;;;;;;4955328;29;20219;-95
2020/12/02 06:30:39;;;;;;;22.27;11.67;;;;;;;;;;4955682;29;20179;-93
2020/12/02 06:33:18;;;;;;;23.57;10.73;;;-2.30;99.90;;;;;;4961040;28;20184;-93
2020/12/02 06:35:45;;;;;;;25.90;12.03;;;;;;;;;;4964217;28;20196;-93
2020/12/02 06:38:23;;;;;;;26.03;13.37;;;-2.40;99.90;;;;;;4963541;28;20183;-94
2020/12/02 06:41:21;;;;;;;28.33;12.80;;;-2.40;99.90;;;;;;4964160;28;20261;-91
2020/12/02 06:44:17;;;;;;;26.03;11.83;;;-2.30;99.90;;;;;;4957849;28;20255;-95
2020/12/02 06:46:48;;;;;;;27.27;12.83;;;-2.30;99.90;;;;;;4962169;28;20181;-92
2020/12/02 06:49:15;;;;;;;20.70;10.50;;;;;;;;;;4967093;28;20196;-92
2020/12/02 06:52:06;;;;;;;24.53;12.70;;;-2.40;99.90;;;;;;4966731;28;20183;-94
2020/12/02 06:54:36;;;;;;;34.67;15.07;;;-2.30;99.90;;;;;;4960164;28;20174;-93
2020/12/02 06:57:25;;;;;;;34.90;16.83;;;-2.40;99.90;;;;;;4951906;29;20180;-94
2020/12/02 06:59:52;;;;;;;32.33;15.63;;;-2.30;99.90;;;;;;4956310;29;20236;-90
2020/12/02 07:02:38;;;;;;;28.87;13.37;;;-2.50;99.90;;;;;;4959170;29;20214;-95
2020/12/02 07:05:10;;;;;;;39.10;16.00;;;-2.30;99.90;;;;;;4958393;29;20253;-94
2020/12/02 07:07:36;;;;;;;27.53;13.33;;;;;;;;;;4968071;28;20250;-94
2020/12/02 07:10:03;;;;;;;42.47;18.87;;;;;;;;;;4968631;28;20222;-93
2020/12/02 07:12:30;;;;;;;29.80;14.13;;;-2.20;99.90;;;;;;4954774;28;20193;-93
2020/12/02 07:15:00;;;;;;;22.17;12.97;;;-2.20;99.90;;;;;;4943294;29;20223;-93
2020/12/02 07:17:26;;;;;;;25.63;12.33;;;;;;;;;;4960478;29;20595;-93
2020/12/02 07:19:53;;;;;;;27.47;11.50;;;;;;;;;;4962224;29;20187;-94
2020/12/02 07:22:24;;;;;;;21.93;11.07;;;-2.10;99.90;;;;;;4966106;28;20203;-91
2020/12/02 07:24:51;;;;;;;34.77;13.47;;;-2.20;99.90;;;;;;4976816;28;20172;-93
2020/12/02 07:27:21;;;;;;;36.77;14.07;;;-2.20;99.90;;;;;;4971688;29;20230;-95
2020/12/02 07:30:04;;;;;;;85.03;22.03;;;-2.10;99.90;;;;;;4975931;29;20175;-94
2020/12/02 07:32:30;;;;;;;34.20;12.37;;;;;;;;;;4975870;29;20155;-93
2020/12/02 07:35:23;;;;;;;88.90;23.20;;;-2.10;99.90;;;;;;4972931;29;20208;-94
2020/12/02 07:37:49;;;;;;;33.17;13.90;;;;;;;;;;4970435;29;20146;-95
2020/12/02 07:42:59;;;;;;;44.90;20.10;;;-2.10;99.90;;;;;;5029496;23;20712;-96
2020/12/02 07:45:31;;;;;;;27.47;13.47;;;-2.00;99.90;;;;;;4995571;28;20206;-96
2020/12/02 07:47:57;;;;;;;135.00;35.77;;;;;;;;;;4988664;28;20249;-94
2020/12/02 07:50:37;;;;;;;145.43;36.07;;;-1.90;99.90;;;;;;5045022;23;20248;-95
2020/12/02 07:53:16;;;;;;;72.17;19.20;;;-1.80;99.90;;;;;;5002890;28;20185;-95
2020/12/02 07:55:48;;;;;;;61.67;17.27;;;-1.80;99.90;;;;;;5008260;28;20206;-91
2020/12/02 07:58:19;;;;;;;50.30;16.70;;;-1.80;99.90;;;;;;5016164;28;20192;-96
2020/12/02 08:00:47;;;;;;;59.83;17.83;;;-1.80;99.90;;;;;;5016246;28;20149;-95
2020/12/02 08:03:40;;;;;;;22.37;11.30;;;-1.70;99.90;;;;;;5018087;28;20258;-95
2020/12/02 08:06:30;;;;;;;27.97;12.10;;;-1.70;99.90;;;;;;5006400;28;20243;-94
2020/12/02 08:08:56;;;;;;;39.80;15.13;;;;;;;;;;4987460;28;20173;-96
2020/12/02 08:11:22;;;;;;;39.53;15.73;;;;;;;;;;5002558;28;20836;-94
2020/12/02 08:13:54;;;;;;;28.83;12.77;;;-1.50;99.90;;;;;;5005654;28;20193;-95
2020/12/02 08:16:41;;;;;;;36.07;14.80;;;-1.50;99.90;;;;;;4999256;28;20202;-92
2020/12/02 08:19:09;;;;;;;27.17;12.13;;;;;;;;;;5003307;28;20200;-93
2020/12/02 08:21:39;;;;;;;59.03;19.03;;;-1.40;99.90;;;;;;4984913;28;20223;-96
2020/12/02 08:24:19;;;;;;;46.67;17.17;;;-1.30;99.90;;;;;;5001658;28;20182;-94
2020/12/02 08:26:47;;;;;;;28.87;11.83;;;-1.30;99.90;;;;;;5008264;28;20205;-92
2020/12/02 08:29:19;;;;;;;19.63;10.03;;;-1.30;99.90;;;;;;5013327;28;20215;-94
2020/12/02 08:34:26;;;;;;;28.03;11.80;;;-1.20;99.90;;;;;;5041318;23;20246;-93
2020/12/02 08:37:14;;;;;;;66.40;22.10;;;-1.20;99.90;;;;;;5002679;23;20242;-96
2020/12/02 08:39:46;;;;;;;53.33;18.67;;;-1.10;99.90;;;;;;4988999;28;20182;-95
2020/12/02 08:42:43;;;;;;;35.03;15.20;;;-1.10;99.90;;;;;;4978344;28;20179;-94
2020/12/02 08:45:19;;;;;;;35.60;14.83;;;-1.00;99.90;;;;;;4977552;28;20194;-94
2020/12/02 08:47:57;;;;;;;21.57;9.27;;;-0.90;99.90;;;;;;4993791;28;20164;-91
2020/12/02 08:50:29;;;;;;;35.87;14.20;;;-0.90;99.90;;;;;;4983168;28;20208;-92
2020/12/02 08:52:57;;;;;;;36.57;14.30;;;-1.00;99.90;;;;;;4986036;28;20163;-94
2020/12/02 08:55:24;;;;;;;35.50;13.50;;;-0.80;99.90;;;;;;4974384;28;20201;-92
2020/12/02 08:57:50;;;;;;;26.83;12.17;;;;;;;;;;4990746;28;20265;-95
2020/12/02 09:00:20;;;;;;;26.40;10.67;;;-0.70;99.90;;;;;;4987427;28;20181;-96
2020/12/02 09:02:46;;;;;;;28.97;11.67;;;;;;;;;;4983006;28;20190;-90
2020/12/02 09:05:12;;;;;;;35.43;12.73;;;;;;;;;;4984209;28;20282;-96
2020/12/02 09:07:38;;;;;;;40.70;14.47;;;;;;;;;;4983186;28;20188;-95
2020/12/02 09:10:06;;;;;;;19.63;9.97;;;-0.60;99.90;;;;;;4987246;28;20187;-96
2020/12/02 09:12:32;;;;;;;43.97;18.30;;;;;;;;;;4982125;28;20246;-93
2020/12/02 09:17:34;;;;;;;27.73;11.50;;;-0.50;99.90;;;;;;5216227;23;20273;-94
2020/12/02 09:20:00;;;;;;;24.23;10.87;;;;;;;;;;4951744;28;20186;-96
2020/12/02 09:22:26;;;;;;;23.03;11.63;;;;;;;;;;4976698;28;20197;-94
2020/12/02 09:24:52;;;;;;;25.97;11.50;;;;;;;;;;4990208;28;20187;-96
2020/12/02 09:27:18;;;;;;;18.17;9.10;;;;;;;;;;4960997;28;20221;-94
2020/12/02 09:29:51;;;;;;;18.33;9.23;;;-0.40;99.90;;;;;;4949883;28;20245;-96
2020/12/02 09:32:37;;;;;;;24.37;10.70;;;-0.40;99.90;;;;;;5570266;23;20225;31
2020/12/02 09:35:07;;;;;;;28.63;13.63;;;-0.30;99.90;;;;;;5048702;23;20236;-96
2020/12/02 09:37:33;;;;;;;20.00;10.20;;;;;;;;;;4935448;29;20181;-96
2020/12/02 09:40:00;;;;;;;39.17;13.97;;;;;;;;;;5027909;23;20254;-96
2020/12/02 09:45:23;;;;;;;43.37;17.00;;;-0.20;99.90;;;;;;5284996;23;20730;-96
2020/12/02 09:47:49;;;;;;;41.10;15.40;;;;;;;;;;4935212;29;20191;-93
2020/12/02 09:50:17;;;;;;;28.40;13.10;;;-0.20;99.90;;;;;;5020855;23;20327;-96
2020/12/02 09:52:48;;;;;;;28.23;11.07;;;-0.20;99.90;;;;;;5180462;23;20309;-96
2020/12/02 09:55:24;;;;;;;42.03;16.33;;;-0.20;99.90;;;;;;4928134;29;20203;-96
2020/12/02 09:57:52;;;;;;;26.13;12.43;;;-0.10;99.90;;;;;;4945032;29;20162;-95
2020/12/02 10:00:22;;;;;;;28.47;13.27;;;-0.10;99.90;;;;;;4929058;29;20186;-96
2020/12/02 10:03:09;;;;;;;35.40;15.23;;;0.00;99.90;;;;;;4938603;29;20182;-96
2020/12/02 10:05:52;;;;;;;37.80;15.47;;;0.00;99.90;;;;;;4955859;28;20241;-95
2020/12/02 10:08:32;;;;;;;32.03;13.73;;;0.10;99.90;;;;;;4935796;29;20197;-96
2020/12/02 10:11:16;;;;;;;20.17;9.90;;;-1.60;99.90;;;;;;4948233;29;20168;-96
2020/12/02 10:14:22;;;;;;;19.33;10.13;;;0.70;99.90;;;;;;4936147;29;20194;-96
2020/12/02 10:17:16;;;;;;;18.30;8.97;;;0.80;99.90;;;;;;4950589;28;20191;-95
2020/12/02 10:19:57;;;;;;;41.83;17.40;;;0.80;99.90;;;;;;4933904;29;20195;-94
2020/12/02 10:22:39;;;;;;;44.40;15.77;;;0.70;99.90;;;;;;4927237;29;20184;-95
2020/12/02 10:25:31;;;;;;;24.27;10.83;;;0.60;99.90;;;;;;4933401;29;20286;-94
2020/12/02 10:28:32;;;;;;;21.27;10.37;;;0.50;99.90;;;;;;4925433;29;20225;-93
2020/12/02 10:31:14;;;;;;;35.07;14.27;;;0.50;99.90;;;;;;4928054;29;20248;-93
2020/12/02 10:33:52;;;;;;;34.67;14.57;;;0.60;99.90;;;;;;4943927;29;20215;-96
2020/12/02 10:36:18;;;;;;;28.00;13.50;;;;;;;;;;4943849;29;20343;-93
2020/12/02 10:38:57;;;;;;;25.83;11.47;;;0.50;99.90;;;;;;4921662;29;20182;-91
2020/12/02 10:41:28;;;;;;;30.80;12.77;;;0.50;99.90;;;;;;4943135;29;20160;-93
2020/12/02 10:43:54;;;;;;;17.27;10.50;;;;;;;;;;4949382;29;20174;-91
2020/12/02 10:46:52;;;;;;;40.40;14.07;;;0.50;99.90;;;;;;4952778;28;20183;-88
2020/12/02 10:49:29;;;;;;;16.93;8.43;;;0.50;99.90;;;;;;4970854;23;20245;-88
2020/12/02 10:51:58;;;;;;;24.13;11.07;;;0.50;99.90;;;;;;5134339;23;20198;-88
2020/12/02 10:54:34;;;;;;;30.83;13.00;;;0.50;99.90;;;;;;4983234;28;20183;-87
2020/12/02 10:59:35;;;;;;;22.17;9.93;;;;;;;;;;4991947;28;20204;-94
2020/12/02 11:02:01;;;;;;;18.13;9.40;;;;;;;;;;4997950;28;20182;-94
2020/12/02 11:04:27;;;;;;;43.43;14.60;;;;;;;;;;4989916;28;20175;-91
2020/12/02 11:07:12;;;;;;;21.53;8.73;;;0.90;99.90;;;;;;4957264;28;20198;-88
2020/12/02 11:09:56;;;;;;;25.17;9.93;;;1.00;99.90;;;;;;4993479;28;20160;-90
2020/12/02 11:12:23;;;;;;;53.40;18.77;;;;;;;;;;4992254;23;20295;-92
2020/12/02 11:15:23;;;;;;;21.23;9.37;;;1.30;99.90;;;;;;4961840;23;20293;-94
2020/12/02 11:20:42;;;;;;;22.50;8.30;;;1.30;99.90;;;;;;5362343;23;20240;-93
2020/12/02 11:23:08;;;;;;;28.93;12.83;;;;;;;;;;5255803;23;20243;-92
2020/12/02 11:25:45;;;;;;;26.20;11.60;;;1.20;99.90;;;;;;4949832;29;20547;-91
2020/12/02 11:28:11;;;;;;;28.90;11.97;;;;;;;;;;4944781;29;20177;-94
2020/12/02 11:30:40;;;;;;;22.47;11.23;;;1.20;99.90;;;;;;4949041;29;20171;-95
2020/12/02 11:33:44;;;;;;;56.47;24.17;;;1.30;99.90;;;;;;4970665;29;20184;-95
2020/12/02 11:36:35;;;;;;;27.80;13.03;;;1.40;99.90;;;;;;4950253;29;20207;-95
2020/12/02 11:39:24;;;;;;;66.63;27.00;;;1.50;99.90;;;;;;4943172;29;20180;-92
2020/12/02 11:42:01;;;;;;;60.20;24.30;;;1.60;99.90;;;;;;4944755;29;20175;-93
2020/12/02 11:44:27;;;;;;;34.63;14.80;;;;;;;;;;4947792;29;20737;-93
2020/12/02 11:47:05;;;;;;;29.77;13.63;;;1.60;99.90;;;;;;4952896;29;20183;-93
2020/12/02 11:49:36;;;;;;;27.63;13.43;;;1.50;99.90;;;;;;4965911;29;20171;-95
2020/12/02 11:52:32;;;;;;;31.17;14.67;;;1.50;99.90;;;;;;4943000;29;20183;-95
2020/12/02 11:55:01;;;;;;;20.07;10.90;;;;;;;;;;4959621;29;20683;-93
2020/12/02 11:57:27;;;;;;;31.07;14.80;;;;;;;;;;4945537;29;20202;-93
2020/12/02 11:59:55;;;;;;;20.20;10.43;;;;;;;;;;4923845;29;20179;-93
2020/12/02 12:02:43;;;;;;;24.00;12.03;;;1.40;99.90;;;;;;4947084;29;20180;-95
2020/12/02 12:05:20;;;;;;;20.70;10.30;;;1.30;99.90;;;;;;4940568;29;20179;-94
2020/12/02 12:08:03;;;;;;;19.37;10.37;;;1.30;99.90;;;;;;4958756;29;20177;-92
2020/12/02 12:10:53;;;;;;;27.17;11.90;;;1.30;99.90;;;;;;4961620;29;20182;-95
2020/12/02 12:13:33;;;;;;;28.80;11.77;;;1.30;99.90;;;;;;4961036;29;20206;-95
2020/12/02 12:15:59;;;;;;;31.90;12.20;;;;;;;;;;4937209;29;20260;-93
2020/12/02 12:18:45;;;;;;;31.00;12.73;;;1.20;99.90;;;;;;4958169;29;20190;-95
2020/12/02 12:21:40;;;;;;;27.23;10.87;;;1.40;99.90;;;;;;4957436;29;20186;-96
2020/12/02 12:24:16;;;;;;;30.93;14.10;;;1.10;99.90;;;;;;4942433;29;20230;-96
2020/12/02 12:26:49;;;;;;;29.00;12.97;;;1.20;99.90;;;;;;4951709;29;20170;-96
2020/12/02 12:29:15;;;;;;;27.70;12.33;;;1.10;99.90;;;;;;4946944;29;20187;-95
2020/12/02 12:31:59;;;;;;;31.40;14.23;;;1.40;99.90;;;;;;4957325;29;20202;-94
2020/12/02 12:34:58;;;;;;;33.43;13.47;;;1.30;99.90;;;;;;4956526;29;20262;-95
2020/12/02 12:37:24;;;;;;;24.37;12.37;;;;;;;;;;4957245;29;20189;-94
2020/12/02 12:39:57;;;;;;;27.77;12.87;;;1.10;99.90;;;;;;4940781;29;20319;-95
2020/12/02 12:42:26;;;;;;;39.67;17.83;;;1.10;99.90;;;;;;4939641;29;20232;-95
2020/12/02 12:44:55;;;;;;;42.43;17.10;;;1.10;99.90;;;;;;4939969;29;20183;-94
2020/12/02 12:47:27;;;;;;;36.57;16.03;;;1.00;99.90;;;;;;4939456;29;20189;-94
2020/12/02 12:49:55;;;;;;;69.03;26.30;;;1.10;99.90;;;;;;4956903;29;20180;-94
2020/12/02 12:52:43;;;;;;;54.23;20.20;;;1.00;99.90;;;;;;4940571;29;20207;-94
2020/12/02 12:55:10;;;;;;;56.10;21.93;;;;;;;;;;4962968;29;20294;-94
2020/12/02 12:57:36;;;;;;;41.10;18.17;;;;;;;;;;4943249;29;20217;-95
2020/12/02 13:00:06;;;;;;;62.23;24.50;;;1.00;99.90;;;;;;4965073;29;20193;-93
2020/12/02 13:02:36;;;;;;;60.90;24.53;;;1.10;99.90;;;;;;4945949;29;20704;-96
2020/12/02 13:05:02;;;;;;;77.20;30.40;;;;;;;;;;4944751;29;20210;-91
2020/12/02 13:07:36;;;;;;;58.23;24.83;;;0.90;99.90;;;;;;4944737;29;20178;-96
2020/12/02 13:10:29;;;;;;;41.97;19.00;;;1.00;99.90;;;;;;4955710;28;20167;-91
2020/12/02 13:13:25;;;;;;;30.23;15.27;;;0.90;99.90;;;;;;4938019;29;20191;-96
2020/12/02 13:16:28;;;;;;;97.90;35.37;;;1.00;99.90;;;;;;4941225;29;20213;-96
2020/12/02 13:19:01;;;;;;;73.23;30.77;;;0.50;99.90;;;;;;4915709;29;20286;-96
2020/12/02 13:21:52;;;;;;;51.23;21.50;;;0.90;99.90;;;;;;4942964;29;20171;-90
2020/12/02 13:24:43;;;;;;;58.73;22.90;;;1.10;99.90;;;;;;4939798;29;20275;-93
2020/12/02 13:27:27;;;;;;;57.37;22.63;;;0.90;99.90;;;;;;4955217;29;20184;-95
2020/12/02 13:30:08;;;;;;;56.93;19.87;;;0.90;99.90;;;;;;4955707;29;20187;-94
2020/12/02 13:32:54;;;;;;;44.40;18.07;;;0.90;99.90;;;;;;4959172;29;20169;-95
2020/12/02 13:35:20;;;;;;;37.30;15.17;;;;;;;;;;4941218;29;20192;-96
2020/12/02 13:37:56;;;;;;;34.80;14.50;;;0.80;99.90;;;;;;4943492;29;20645;-95
2020/12/02 13:40:22;;;;;;;34.63;17.30;;;;;;;;;;4940163;29;20199;-95
2020/12/02 13:42:48;;;;;;;36.57;17.13;;;;;;;;;;4956455;29;20179;-96
2020/12/02 13:45:18;;;;;;;43.70;18.03;;;0.80;99.90;;;;;;4959007;29;20187;-96
2020/12/02 13:47:46;;;;;;;42.60;17.33;;;0.70;99.90;;;;;;4966119;29;20257;-92
2020/12/02 13:50:18;;;;;;;43.60;18.70;;;0.70;99.90;;;;;;4968929;29;20572;-96